sensor_id;sensor_type;location;lat;lon;timestamp;temperature;humidity
6355;DHT22;3210;48.708;9.030;2023-08-30T00:00:58;11.90;1.00
6355;DHT22;3210;48.708;9.030;2023-08-30T00:03:24;11.90;1.00
6355;DHT22;3210;48.708;9.030;2023-08-30T00:05:51;11.90;1.00
6355;DHT22;3210;48.708;9.030;2023-08-30T00:08:18;11.80;16.60
6355;DHT22;3210;48.708;9.030;2023-08-30T00:10:45;11.80;99.90
6355;DHT22;3210;48.708;9.030;2023-08-30T00:13:12;11.70;99.90
6355;DHT22;3210;48.708;9.030;2023-08-30T00:15:40;11.80;1.00
6355;DHT22;3210;48.708;9.030;2023-08-30T00:18:07;11.80;1.00
6355;DHT22;3210;48.708;9.030;2023-08-30T00:20:34;11.80;99.90
6355;DHT22;3210;48.708;9.030;2023-08-30T00:23:01;11.80;99.90
6355;DHT22;3210;48.708;9.030;2023-08-30T00:25:28;11.80;99.90
6355;DHT22;3210;48.708;9.030;2023-08-30T00:27:55;11.80;99.90
6355;DHT22;3210;48.708;9.030;2023-08-30T00:30:22;11.80;1.00
6355;DHT22;3210;48.708;9.030;2023-08-30T00:32:50;11.90;99.90
6355;DHT22;3210;48.708;9.030;2023-08-30T00:35:17;11.80;91.30
6355;DHT22;3210;48.708;9.030;2023-08-30T00:37:44;11.80;1.00
6355;DHT22;3210;48.708;9.030;2023-08-30T00:40:11;11.80;1.00
6355;DHT22;3210;48.708;9.030;2023-08-30T00:42:38;11.80;1.00
6355;DHT22;3210;48.708;9.030;2023-08-30T00:45:06;11.70;99.90
6355;DHT22;3210;48.708;9.030;2023-08-30T00:47:33;11.70;48.00
6355;DHT22;3210;48.708;9.030;2023-08-30T00:50:02;11.70;99.90
6355;DHT22;3210;48.708;9.030;2023-08-30T00:52:30;11.70;99.90
6355;DHT22;3210;48.708;9.030;2023-08-30T00:54:57;11.80;99.90
6355;DHT22;3210;48.708;9.030;2023-08-30T00:57:24;11.80;99.90
6355;DHT22;3210;48.708;9.030;2023-08-30T00:59:51;11.80;99.90
6355;DHT22;3210;48.708;9.030;2023-08-30T01:02:19;11.80;99.90
6355;DHT22;3210;48.708;9.030;2023-08-30T01:04:47;11.80;75.00
6355;DHT22;3210;48.708;9.030;2023-08-30T01:07:15;11.80;6.20
6355;DHT22;3210;48.708;9.030;2023-08-30T01:09:42;11.80;99.90
6355;DHT22;3210;48.708;9.030;2023-08-30T01:12:11;11.90;99.90
6355;DHT22;3210;48.708;9.030;2023-08-30T01:14:45;11.80;1.00
6355;DHT22;3210;48.708;9.030;2023-08-30T01:17:17;11.80;99.90
6355;DHT22;3210;48.708;9.030;2023-08-30T01:19:50;11.90;99.90
6355;DHT22;3210;48.708;9.030;2023-08-30T01:22:34;11.90;1.00
6355;DHT22;3210;48.708;9.030;2023-08-30T01:25:12;11.80;1.00
6355;DHT22;3210;48.708;9.030;2023-08-30T01:27:43;11.90;99.90
6355;DHT22;3210;48.708;9.030;2023-08-30T01:30:12;11.90;99.90
6355;DHT22;3210;48.708;9.030;2023-08-30T01:32:40;11.90;1.00
6355;DHT22;3210;48.708;9.030;2023-08-30T01:35:07;11.70;99.90
6355;DHT22;3210;48.708;9.030;2023-08-30T01:37:35;11.80;1.00
6355;DHT22;3210;48.708;9.030;2023-08-30T01:40:04;11.80;99.90
6355;DHT22;3210;48.708;9.030;2023-08-30T01:42:31;11.80;1.00
6355;DHT22;3210;48.708;9.030;2023-08-30T01:45:01;11.70;1.00
6355;DHT22;3210;48.708;9.030;2023-08-30T01:47:29;11.60;35.30
6355;DHT22;3210;48.708;9.030;2023-08-30T01:49:57;11.70;1.00
6355;DHT22;3210;48.708;9.030;2023-08-30T01:52:24;11.60;99.90
6355;DHT22;3210;48.708;9.030;2023-08-30T01:54:52;11.60;1.00
6355;DHT22;3210;48.708;9.030;2023-08-30T01:57:19;11.60;99.90
6355;DHT22;3210;48.708;9.030;2023-08-30T01:59:46;11.60;99.90
6355;DHT22;3210;48.708;9.030;2023-08-30T02:02:14;11.60;26.70
6355;DHT22;3210;48.708;9.030;2023-08-30T02:04:41;11.50;7.30
6355;DHT22;3210;48.708;9.030;2023-08-30T02:07:13;11.50;99.90
6355;DHT22;3210;48.708;9.030;2023-08-30T02:09:48;11.50;1.00
6355;DHT22;3210;48.708;9.030;2023-08-30T02:12:17;11.50;1.00
6355;DHT22;3210;48.708;9.030;2023-08-30T02:14:48;11.50;24.00
6355;DHT22;3210;48.708;9.030;2023-08-30T02:17:17;11.50;99.90
6355;DHT22;3210;48.708;9.030;2023-08-30T02:19:44;11.50;99.90
6355;DHT22;3210;48.708;9.030;2023-08-30T02:22:12;11.40;1.00
6355;DHT22;3210;48.708;9.030;2023-08-30T02:24:39;11.40;99.90
6355;DHT22;3210;48.708;9.030;2023-08-30T02:27:05;11.40;99.90
6355;DHT22;3210;48.708;9.030;2023-08-30T02:29:32;11.40;1.00
6355;DHT22;3210;48.708;9.030;2023-08-30T02:31:59;11.30;1.00
6355;DHT22;3210;48.708;9.030;2023-08-30T02:34:27;11.30;1.00
6355;DHT22;3210;48.708;9.030;2023-08-30T02:36:54;11.30;99.90
6355;DHT22;3210;48.708;9.030;2023-08-30T02:39:21;11.30;99.90
6355;DHT22;3210;48.708;9.030;2023-08-30T02:41:48;11.30;99.90
6355;DHT22;3210;48.708;9.030;2023-08-30T02:44:15;11.30;1.00
6355;DHT22;3210;48.708;9.030;2023-08-30T02:46:42;11.10;99.40
6355;DHT22;3210;48.708;9.030;2023-08-30T02:49:08;11.20;1.00
6355;DHT22;3210;48.708;9.030;2023-08-30T02:51:38;11.10;1.00
6355;DHT22;3210;48.708;9.030;2023-08-30T02:54:05;11.10;1.00
6355;DHT22;3210;48.708;9.030;2023-08-30T02:56:32;11.00;1.00
6355;DHT22;3210;48.708;9.030;2023-08-30T02:58:58;10.90;99.90
6355;DHT22;3210;48.708;9.030;2023-08-30T03:01:26;10.90;1.00
6355;DHT22;3210;48.708;9.030;2023-08-30T03:03:53;10.90;99.90
6355;DHT22;3210;48.708;9.030;2023-08-30T03:06:20;10.80;99.90
6355;DHT22;3210;48.708;9.030;2023-08-30T03:08:48;10.80;1.00
6355;DHT22;3210;48.708;9.030;2023-08-30T03:11:14;10.90;99.90
6355;DHT22;3210;48.708;9.030;2023-08-30T03:13:41;10.90;99.90
6355;DHT22;3210;48.708;9.030;2023-08-30T03:16:11;10.90;1.00
6355;DHT22;3210;48.708;9.030;2023-08-30T03:18:38;10.80;1.00
6355;DHT22;3210;48.708;9.030;2023-08-30T03:21:06;10.80;1.00
6355;DHT22;3210;48.708;9.030;2023-08-30T03:23:33;10.90;99.90
6355;DHT22;3210;48.708;9.030;2023-08-30T03:26:09;10.80;49.20
6355;DHT22;3210;48.708;9.030;2023-08-30T03:28:35;10.80;99.90
6355;DHT22;3210;48.708;9.030;2023-08-30T03:31:10;10.80;99.90
6355;DHT22;3210;48.708;9.030;2023-08-30T03:33:37;10.80;99.90
6355;DHT22;3210;48.708;9.030;2023-08-30T03:36:04;10.80;8.80
6355;DHT22;3210;48.708;9.030;2023-08-30T03:38:31;10.70;1.00
6355;DHT22;3210;48.708;9.030;2023-08-30T03:40:57;10.80;1.00
6355;DHT22;3210;48.708;9.030;2023-08-30T03:43:26;10.70;99.90
6355;DHT22;3210;48.708;9.030;2023-08-30T03:45:52;10.70;1.00
6355;DHT22;3210;48.708;9.030;2023-08-30T03:48:19;10.70;99.90
6355;DHT22;3210;48.708;9.030;2023-08-30T03:50:46;10.70;99.90
6355;DHT22;3210;48.708;9.030;2023-08-30T03:53:13;10.80;99.90
6355;DHT22;3210;48.708;9.030;2023-08-30T03:55:40;11.00;1.00
6355;DHT22;3210;48.708;9.030;2023-08-30T03:58:07;11.00;1.00
6355;DHT22;3210;48.708;9.030;2023-08-30T04:00:37;11.10;1.00
6355;DHT22;3210;48.708;9.030;2023-08-30T04:03:04;11.10;1.00
6355;DHT22;3210;48.708;9.030;2023-08-30T04:05:32;11.30;99.90
6355;DHT22;3210;48.708;9.030;2023-08-30T04:08:02;11.30;99.90
6355;DHT22;3210;48.708;9.030;2023-08-30T04:10:29;11.40;1.00
6355;DHT22;3210;48.708;9.030;2023-08-30T04:12:55;11.40;99.90
6355;DHT22;3210;48.708;9.030;2023-08-30T04:15:22;11.40;99.90
6355;DHT22;3210;48.708;9.030;2023-08-30T04:17:50;11.40;99.90
6355;DHT22;3210;48.708;9.030;2023-08-30T04:20:17;11.50;17.70
6355;DHT22;3210;48.708;9.030;2023-08-30T04:22:44;11.50;99.90
6355;DHT22;3210;48.708;9.030;2023-08-30T04:25:11;11.60;1.00
6355;DHT22;3210;48.708;9.030;2023-08-30T04:27:38;11.60;99.90
6355;DHT22;3210;48.708;9.030;2023-08-30T04:30:05;11.70;99.90
6355;DHT22;3210;48.708;9.030;2023-08-30T04:32:32;11.60;1.00
6355;DHT22;3210;48.708;9.030;2023-08-30T04:35:01;11.60;18.90
6355;DHT22;3210;48.708;9.030;2023-08-30T04:37:30;11.60;13.50
6355;DHT22;3210;48.708;9.030;2023-08-30T04:39:57;11.60;1.00
6355;DHT22;3210;48.708;9.030;2023-08-30T04:42:24;11.60;1.00
6355;DHT22;3210;48.708;9.030;2023-08-30T04:44:51;11.60;99.90
6355;DHT22;3210;48.708;9.030;2023-08-30T04:47:20;11.60;99.90
6355;DHT22;3210;48.708;9.030;2023-08-30T04:49:50;11.60;99.90
6355;DHT22;3210;48.708;9.030;2023-08-30T04:52:18;11.60;99.90
6355;DHT22;3210;48.708;9.030;2023-08-30T04:54:45;11.70;38.60
6355;DHT22;3210;48.708;9.030;2023-08-30T04:57:12;11.70;4.80
6355;DHT22;3210;48.708;9.030;2023-08-30T04:59:39;11.70;1.00
6355;DHT22;3210;48.708;9.030;2023-08-30T05:02:06;11.70;1.00
6355;DHT22;3210;48.708;9.030;2023-08-30T05:04:33;11.80;1.00
6355;DHT22;3210;48.708;9.030;2023-08-30T05:07:00;11.70;99.90
6355;DHT22;3210;48.708;9.030;2023-08-30T05:09:30;11.60;99.90
6355;DHT22;3210;48.708;9.030;2023-08-30T05:11:58;11.60;1.00
6355;DHT22;3210;48.708;9.030;2023-08-30T05:14:24;11.60;1.00
6355;DHT22;3210;48.708;9.030;2023-08-30T05:16:51;11.60;1.00
6355;DHT22;3210;48.708;9.030;2023-08-30T05:19:18;11.60;28.40
6355;DHT22;3210;48.708;9.030;2023-08-30T05:21:45;11.60;1.00
6355;DHT22;3210;48.708;9.030;2023-08-30T05:24:11;11.60;99.90
6355;DHT22;3210;48.708;9.030;2023-08-30T05:26:40;11.60;84.90
6355;DHT22;3210;48.708;9.030;2023-08-30T05:29:06;11.70;37.50
6355;DHT22;3210;48.708;9.030;2023-08-30T05:31:33;11.70;1.00
6355;DHT22;3210;48.708;9.030;2023-08-30T05:34:00;11.80;99.90
6355;DHT22;3210;48.708;9.030;2023-08-30T05:36:27;11.80;1.00
6355;DHT22;3210;48.708;9.030;2023-08-30T05:38:53;12.00;1.00
6355;DHT22;3210;48.708;9.030;2023-08-30T05:41:20;12.00;99.90
6355;DHT22;3210;48.708;9.030;2023-08-30T05:43:48;12.10;1.00
6355;DHT22;3210;48.708;9.030;2023-08-30T05:46:15;12.20;1.00
6355;DHT22;3210;48.708;9.030;2023-08-30T05:48:42;12.10;1.00
6355;DHT22;3210;48.708;9.030;2023-08-30T05:51:09;12.10;99.90
6355;DHT22;3210;48.708;9.030;2023-08-30T05:53:35;12.20;99.90
6355;DHT22;3210;48.708;9.030;2023-08-30T05:56:02;12.20;1.00
6355;DHT22;3210;48.708;9.030;2023-08-30T05:58:29;12.20;99.90
6355;DHT22;3210;48.708;9.030;2023-08-30T06:00:57;12.20;1.00
6355;DHT22;3210;48.708;9.030;2023-08-30T06:03:25;12.30;1.00
6355;DHT22;3210;48.708;9.030;2023-08-30T06:05:53;12.40;1.00
6355;DHT22;3210;48.708;9.030;2023-08-30T06:08:19;12.50;99.90
6355;DHT22;3210;48.708;9.030;2023-08-30T06:10:46;12.60;43.10
6355;DHT22;3210;48.708;9.030;2023-08-30T06:13:13;12.60;99.90
6355;DHT22;3210;48.708;9.030;2023-08-30T06:15:40;12.60;99.90
6355;DHT22;3210;48.708;9.030;2023-08-30T06:18:08;12.60;99.90
6355;DHT22;3210;48.708;9.030;2023-08-30T06:20:35;12.70;51.20
6355;DHT22;3210;48.708;9.030;2023-08-30T06:23:03;12.70;1.00
6355;DHT22;3210;48.708;9.030;2023-08-30T06:25:30;12.80;1.00
6355;DHT22;3210;48.708;9.030;2023-08-30T06:27:58;12.90;99.90
6355;DHT22;3210;48.708;9.030;2023-08-30T06:30:27;12.90;99.90
6355;DHT22;3210;48.708;9.030;2023-08-30T06:32:54;12.90;3.90
6355;DHT22;3210;48.708;9.030;2023-08-30T06:35:23;13.00;1.40
6355;DHT22;3210;48.708;9.030;2023-08-30T06:37:50;12.90;1.00
6355;DHT22;3210;48.708;9.030;2023-08-30T06:40:17;13.00;34.40
6355;DHT22;3210;48.708;9.030;2023-08-30T06:42:44;13.00;99.50
6355;DHT22;3210;48.708;9.030;2023-08-30T06:45:11;13.00;93.30
6355;DHT22;3210;48.708;9.030;2023-08-30T06:47:38;13.00;1.00
6355;DHT22;3210;48.708;9.030;2023-08-30T06:50:06;13.00;1.00
6355;DHT22;3210;48.708;9.030;2023-08-30T06:52:36;13.00;1.00
6355;DHT22;3210;48.708;9.030;2023-08-30T06:55:03;13.00;1.00
6355;DHT22;3210;48.708;9.030;2023-08-30T06:57:30;13.10;99.90
6355;DHT22;3210;48.708;9.030;2023-08-30T06:59:57;13.00;99.90
6355;DHT22;3210;48.708;9.030;2023-08-30T07:02:25;13.10;99.90
6355;DHT22;3210;48.708;9.030;2023-08-30T07:04:53;13.10;1.00
6355;DHT22;3210;48.708;9.030;2023-08-30T07:07:19;13.20;97.10
6355;DHT22;3210;48.708;9.030;2023-08-30T07:09:48;13.20;93.10
6355;DHT22;3210;48.708;9.030;2023-08-30T07:12:14;13.20;99.90
6355;DHT22;3210;48.708;9.030;2023-08-30T07:14:41;13.30;99.90
6355;DHT22;3210;48.708;9.030;2023-08-30T07:17:08;13.30;99.90
6355;DHT22;3210;48.708;9.030;2023-08-30T07:19:35;13.30;99.90
6355;DHT22;3210;48.708;9.030;2023-08-30T07:22:02;13.40;99.90
6355;DHT22;3210;48.708;9.030;2023-08-30T07:24:29;13.40;1.00
6355;DHT22;3210;48.708;9.030;2023-08-30T07:26:58;13.40;1.00
6355;DHT22;3210;48.708;9.030;2023-08-30T07:29:24;13.50;1.00
6355;DHT22;3210;48.708;9.030;2023-08-30T07:31:51;13.50;1.00
6355;DHT22;3210;48.708;9.030;2023-08-30T07:34:20;13.60;1.00
6355;DHT22;3210;48.708;9.030;2023-08-30T07:36:47;13.50;1.00
6355;DHT22;3210;48.708;9.030;2023-08-30T07:39:14;13.70;1.00
6355;DHT22;3210;48.708;9.030;2023-08-30T07:41:41;13.70;99.90
6355;DHT22;3210;48.708;9.030;2023-08-30T07:44:09;13.80;99.90
6355;DHT22;3210;48.708;9.030;2023-08-30T07:46:36;13.80;99.90
6355;DHT22;3210;48.708;9.030;2023-08-30T07:49:03;13.80;99.90
6355;DHT22;3210;48.708;9.030;2023-08-30T07:51:29;13.80;99.90
6355;DHT22;3210;48.708;9.030;2023-08-30T07:53:56;13.80;99.90
6355;DHT22;3210;48.708;9.030;2023-08-30T07:56:23;13.80;99.90
6355;DHT22;3210;48.708;9.030;2023-08-30T07:58:50;13.70;99.90
6355;DHT22;3210;48.708;9.030;2023-08-30T08:01:18;13.80;99.90
6355;DHT22;3210;48.708;9.030;2023-08-30T08:03:45;13.90;99.90
6355;DHT22;3210;48.708;9.030;2023-08-30T08:06:12;14.00;99.90
6355;DHT22;3210;48.708;9.030;2023-08-30T08:08:39;14.10;99.90
6355;DHT22;3210;48.708;9.030;2023-08-30T08:11:06;14.10;99.90
6355;DHT22;3210;48.708;9.030;2023-08-30T08:13:32;14.30;99.90
6355;DHT22;3210;48.708;9.030;2023-08-30T08:15:59;14.30;99.90
6355;DHT22;3210;48.708;9.030;2023-08-30T08:18:27;14.40;99.90
6355;DHT22;3210;48.708;9.030;2023-08-30T08:20:54;14.50;1.00
6355;DHT22;3210;48.708;9.030;2023-08-30T08:23:21;14.60;28.30
6355;DHT22;3210;48.708;9.030;2023-08-30T08:25:48;14.70;99.90
6355;DHT22;3210;48.708;9.030;2023-08-30T08:28:14;14.80;98.30
6355;DHT22;3210;48.708;9.030;2023-08-30T08:30:43;15.00;99.90
6355;DHT22;3210;48.708;9.030;2023-08-30T08:33:10;15.00;99.90
6355;DHT22;3210;48.708;9.030;2023-08-30T08:35:38;15.10;11.90
6355;DHT22;3210;48.708;9.030;2023-08-30T08:38:05;15.10;99.90
6355;DHT22;3210;48.708;9.030;2023-08-30T08:40:32;15.30;1.00
6355;DHT22;3210;48.708;9.030;2023-08-30T08:43:03;15.50;1.00
6355;DHT22;3210;48.708;9.030;2023-08-30T08:45:32;15.60;1.00
6355;DHT22;3210;48.708;9.030;2023-08-30T08:47:59;15.70;1.00
6355;DHT22;3210;48.708;9.030;2023-08-30T08:50:26;15.80;1.00
6355;DHT22;3210;48.708;9.030;2023-08-30T08:52:56;15.90;1.00
6355;DHT22;3210;48.708;9.030;2023-08-30T08:55:23;16.10;99.90
6355;DHT22;3210;48.708;9.030;2023-08-30T08:57:53;15.90;99.90
6355;DHT22;3210;48.708;9.030;2023-08-30T09:00:20;16.00;99.90
6355;DHT22;3210;48.708;9.030;2023-08-30T09:02:48;15.90;1.00
6355;DHT22;3210;48.708;9.030;2023-08-30T09:05:18;15.90;99.90
6355;DHT22;3210;48.708;9.030;2023-08-30T09:07:44;16.00;99.90
6355;DHT22;3210;48.708;9.030;2023-08-30T09:10:13;16.10;99.90
6355;DHT22;3210;48.708;9.030;2023-08-30T09:12:40;16.20;99.90
6355;DHT22;3210;48.708;9.030;2023-08-30T09:15:07;16.20;99.90
6355;DHT22;3210;48.708;9.030;2023-08-30T09:17:37;16.40;99.90
6355;DHT22;3210;48.708;9.030;2023-08-30T09:20:06;16.60;99.90
6355;DHT22;3210;48.708;9.030;2023-08-30T09:22:37;16.70;99.90
6355;DHT22;3210;48.708;9.030;2023-08-30T09:25:05;16.80;99.90
6355;DHT22;3210;48.708;9.030;2023-08-30T09:27:34;17.00;99.90
6355;DHT22;3210;48.708;9.030;2023-08-30T09:30:01;17.20;99.90
6355;DHT22;3210;48.708;9.030;2023-08-30T09:32:29;17.30;99.90
6355;DHT22;3210;48.708;9.030;2023-08-30T09:34:56;17.40;46.60
6355;DHT22;3210;48.708;9.030;2023-08-30T09:37:23;17.50;43.20
6355;DHT22;3210;48.708;9.030;2023-08-30T09:39:52;17.50;1.00
6355;DHT22;3210;48.708;9.030;2023-08-30T09:42:18;17.50;18.20
6355;DHT22;3210;48.708;9.030;2023-08-30T09:44:47;17.50;36.30
6355;DHT22;3210;48.708;9.030;2023-08-30T09:47:14;17.50;35.40
6355;DHT22;3210;48.708;9.030;2023-08-30T09:49:43;17.40;22.00
6355;DHT22;3210;48.708;9.030;2023-08-30T09:52:12;17.60;1.00
6355;DHT22;3210;48.708;9.030;2023-08-30T09:54:41;17.70;1.00
6355;DHT22;3210;48.708;9.030;2023-08-30T09:57:09;17.70;1.00
6355;DHT22;3210;48.708;9.030;2023-08-30T09:59:37;17.90;1.00
6355;DHT22;3210;48.708;9.030;2023-08-30T10:02:08;17.90;1.00
6355;DHT22;3210;48.708;9.030;2023-08-30T10:04:37;18.00;1.00
6355;DHT22;3210;48.708;9.030;2023-08-30T10:07:06;18.20;1.00
6355;DHT22;3210;48.708;9.030;2023-08-30T10:09:33;18.30;1.00
6355;DHT22;3210;48.708;9.030;2023-08-30T10:12:01;18.30;1.00
6355;DHT22;3210;48.708;9.030;2023-08-30T10:14:29;18.40;1.00
6355;DHT22;3210;48.708;9.030;2023-08-30T10:17:01;18.60;1.00
6355;DHT22;3210;48.708;9.030;2023-08-30T10:19:30;18.50;1.00
6355;DHT22;3210;48.708;9.030;2023-08-30T10:22:01;18.40;1.00
6355;DHT22;3210;48.708;9.030;2023-08-30T10:24:30;18.40;1.00
6355;DHT22;3210;48.708;9.030;2023-08-30T10:26:59;18.60;1.00
6355;DHT22;3210;48.708;9.030;2023-08-30T10:29:28;18.80;1.00
6355;DHT22;3210;48.708;9.030;2023-08-30T10:31:55;19.00;1.00
6355;DHT22;3210;48.708;9.030;2023-08-30T10:34:22;18.90;1.00
6355;DHT22;3210;48.708;9.030;2023-08-30T10:37:01;18.90;1.00
6355;DHT22;3210;48.708;9.030;2023-08-30T10:39:34;19.00;1.00
6355;DHT22;3210;48.708;9.030;2023-08-30T10:42:07;19.00;1.00
6355;DHT22;3210;48.708;9.030;2023-08-30T10:44:35;19.00;1.00
6355;DHT22;3210;48.708;9.030;2023-08-30T10:47:18;19.00;1.00
6355;DHT22;3210;48.708;9.030;2023-08-30T10:49:47;19.10;1.00
6355;DHT22;3210;48.708;9.030;2023-08-30T10:52:15;19.10;1.00
6355;DHT22;3210;48.708;9.030;2023-08-30T10:54:42;19.20;1.00
6355;DHT22;3210;48.708;9.030;2023-08-30T10:57:13;19.30;1.00
6355;DHT22;3210;48.708;9.030;2023-08-30T10:59:40;19.50;1.00
6355;DHT22;3210;48.708;9.030;2023-08-30T11:02:07;19.60;1.00
6355;DHT22;3210;48.708;9.030;2023-08-30T11:04:39;19.60;1.00
6355;DHT22;3210;48.708;9.030;2023-08-30T11:07:07;19.90;1.00
6355;DHT22;3210;48.708;9.030;2023-08-30T11:09:37;20.00;1.00
6355;DHT22;3210;48.708;9.030;2023-08-30T11:12:06;20.10;1.00
6355;DHT22;3210;48.708;9.030;2023-08-30T11:14:33;20.10;1.00
6355;DHT22;3210;48.708;9.030;2023-08-30T11:17:00;20.20;1.00
6355;DHT22;3210;48.708;9.030;2023-08-30T11:19:29;20.30;1.00
6355;DHT22;3210;48.708;9.030;2023-08-30T11:21:57;20.30;1.00
6355;DHT22;3210;48.708;9.030;2023-08-30T11:24:24;20.30;1.00
6355;DHT22;3210;48.708;9.030;2023-08-30T11:26:54;20.10;1.00
6355;DHT22;3210;48.708;9.030;2023-08-30T11:29:21;20.20;1.00
6355;DHT22;3210;48.708;9.030;2023-08-30T11:31:49;20.20;1.00
6355;DHT22;3210;48.708;9.030;2023-08-30T11:34:20;19.90;1.00
6355;DHT22;3210;48.708;9.030;2023-08-30T11:36:48;19.20;1.00
6355;DHT22;3210;48.708;9.030;2023-08-30T11:39:16;18.30;1.00
6355;DHT22;3210;48.708;9.030;2023-08-30T11:41:43;17.70;1.00
6355;DHT22;3210;48.708;9.030;2023-08-30T11:44:11;17.00;1.00
6355;DHT22;3210;48.708;9.030;2023-08-30T11:46:38;16.70;1.00
6355;DHT22;3210;48.708;9.030;2023-08-30T11:49:05;16.50;99.90
6355;DHT22;3210;48.708;9.030;2023-08-30T11:51:33;16.30;99.90
6355;DHT22;3210;48.708;9.030;2023-08-30T11:54:00;16.10;1.00
6355;DHT22;3210;48.708;9.030;2023-08-30T11:56:29;16.00;99.90
6355;DHT22;3210;48.708;9.030;2023-08-30T11:58:56;15.70;99.90
6355;DHT22;3210;48.708;9.030;2023-08-30T12:01:24;15.70;1.00
6355;DHT22;3210;48.708;9.030;2023-08-30T12:03:51;15.60;1.00
6355;DHT22;3210;48.708;9.030;2023-08-30T12:06:18;15.60;3.10
6355;DHT22;3210;48.708;9.030;2023-08-30T12:08:44;15.50;1.00
6355;DHT22;3210;48.708;9.030;2023-08-30T12:11:18;15.40;10.20
6355;DHT22;3210;48.708;9.030;2023-08-30T12:13:45;15.20;99.90
6355;DHT22;3210;48.708;9.030;2023-08-30T12:16:15;15.10;49.40
6355;DHT22;3210;48.708;9.030;2023-08-30T12:18:44;15.30;36.90
6355;DHT22;3210;48.708;9.030;2023-08-30T12:21:13;15.40;1.00
6355;DHT22;3210;48.708;9.030;2023-08-30T12:23:40;15.40;1.00
6355;DHT22;3210;48.708;9.030;2023-08-30T12:26:08;15.20;99.90
6355;DHT22;3210;48.708;9.030;2023-08-30T12:28:36;15.50;99.90
6355;DHT22;3210;48.708;9.030;2023-08-30T12:31:03;15.70;8.10
6355;DHT22;3210;48.708;9.030;2023-08-30T12:33:30;16.10;99.90
6355;DHT22;3210;48.708;9.030;2023-08-30T12:35:59;16.30;99.90
6355;DHT22;3210;48.708;9.030;2023-08-30T12:38:26;16.60;99.90
6355;DHT22;3210;48.708;9.030;2023-08-30T12:40:54;16.80;1.00
6355;DHT22;3210;48.708;9.030;2023-08-30T12:43:22;17.00;92.20
6355;DHT22;3210;48.708;9.030;2023-08-30T12:45:50;17.10;66.90
6355;DHT22;3210;48.708;9.030;2023-08-30T12:48:17;17.30;1.00
6355;DHT22;3210;48.708;9.030;2023-08-30T12:50:46;17.00;99.90
6355;DHT22;3210;48.708;9.030;2023-08-30T12:53:15;17.20;99.90
6355;DHT22;3210;48.708;9.030;2023-08-30T12:55:43;17.50;99.90
6355;DHT22;3210;48.708;9.030;2023-08-30T12:58:10;17.60;99.90
6355;DHT22;3210;48.708;9.030;2023-08-30T13:00:37;17.90;99.90
6355;DHT22;3210;48.708;9.030;2023-08-30T13:03:04;18.00;99.90
6355;DHT22;3210;48.708;9.030;2023-08-30T13:05:31;18.10;99.90
6355;DHT22;3210;48.708;9.030;2023-08-30T13:07:58;18.00;49.60
6355;DHT22;3210;48.708;9.030;2023-08-30T13:10:27;18.20;99.90
6355;DHT22;3210;48.708;9.030;2023-08-30T13:12:54;18.40;99.90
6355;DHT22;3210;48.708;9.030;2023-08-30T13:15:21;18.10;99.90
6355;DHT22;3210;48.708;9.030;2023-08-30T13:17:47;18.30;99.90
6355;DHT22;3210;48.708;9.030;2023-08-30T13:20:14;18.60;1.00
6355;DHT22;3210;48.708;9.030;2023-08-30T13:22:41;18.70;1.00
6355;DHT22;3210;48.708;9.030;2023-08-30T13:25:08;19.10;1.00
6355;DHT22;3210;48.708;9.030;2023-08-30T13:27:36;19.20;1.00
6355;DHT22;3210;48.708;9.030;2023-08-30T13:30:04;19.10;1.00
6355;DHT22;3210;48.708;9.030;2023-08-30T13:32:31;19.30;1.00
6355;DHT22;3210;48.708;9.030;2023-08-30T13:34:58;19.40;1.00
6355;DHT22;3210;48.708;9.030;2023-08-30T13:37:25;19.30;1.00
6355;DHT22;3210;48.708;9.030;2023-08-30T13:39:52;19.40;1.00
6355;DHT22;3210;48.708;9.030;2023-08-30T13:42:19;19.50;1.00
6355;DHT22;3210;48.708;9.030;2023-08-30T13:44:51;19.30;1.00
6355;DHT22;3210;48.708;9.030;2023-08-30T13:47:19;19.20;1.00
6355;DHT22;3210;48.708;9.030;2023-08-30T13:49:46;19.10;1.00
6355;DHT22;3210;48.708;9.030;2023-08-30T13:52:13;19.00;1.00
6355;DHT22;3210;48.708;9.030;2023-08-30T13:54:39;19.10;1.00
6355;DHT22;3210;48.708;9.030;2023-08-30T13:57:06;19.30;1.00
6355;DHT22;3210;48.708;9.030;2023-08-30T13:59:33;19.50;1.00
6355;DHT22;3210;48.708;9.030;2023-08-30T14:02:03;19.50;1.00
6355;DHT22;3210;48.708;9.030;2023-08-30T14:04:30;19.50;1.00
6355;DHT22;3210;48.708;9.030;2023-08-30T14:06:59;19.10;1.00
6355;DHT22;3210;48.708;9.030;2023-08-30T14:09:26;18.90;1.00
6355;DHT22;3210;48.708;9.030;2023-08-30T14:11:53;18.80;1.00
6355;DHT22;3210;48.708;9.030;2023-08-30T14:14:20;18.90;1.00
6355;DHT22;3210;48.708;9.030;2023-08-30T14:16:47;18.70;1.00
6355;DHT22;3210;48.708;9.030;2023-08-30T14:19:16;18.70;1.00
6355;DHT22;3210;48.708;9.030;2023-08-30T14:21:43;18.90;1.00
6355;DHT22;3210;48.708;9.030;2023-08-30T14:24:10;18.90;1.00
6355;DHT22;3210;48.708;9.030;2023-08-30T14:26:37;18.60;1.00
6355;DHT22;3210;48.708;9.030;2023-08-30T14:29:04;18.70;1.00
6355;DHT22;3210;48.708;9.030;2023-08-30T14:31:30;18.70;1.00
6355;DHT22;3210;48.708;9.030;2023-08-30T14:33:57;18.70;1.00
6355;DHT22;3210;48.708;9.030;2023-08-30T14:36:25;18.30;1.00
6355;DHT22;3210;48.708;9.030;2023-08-30T14:38:52;18.30;1.00
6355;DHT22;3210;48.708;9.030;2023-08-30T14:41:19;18.10;1.00
6355;DHT22;3210;48.708;9.030;2023-08-30T14:43:46;18.20;47.90
6355;DHT22;3210;48.708;9.030;2023-08-30T14:46:12;18.10;27.80
6355;DHT22;3210;48.708;9.030;2023-08-30T14:48:41;18.00;99.90
6355;DHT22;3210;48.708;9.030;2023-08-30T14:51:08;18.00;99.90
6355;DHT22;3210;48.708;9.030;2023-08-30T14:53:36;18.00;99.90
6355;DHT22;3210;48.708;9.030;2023-08-30T14:56:03;17.90;99.90
6355;DHT22;3210;48.708;9.030;2023-08-30T14:58:32;18.10;40.30
6355;DHT22;3210;48.708;9.030;2023-08-30T15:01:00;18.20;15.90
6355;DHT22;3210;48.708;9.030;2023-08-30T15:03:29;18.50;19.10
6355;DHT22;3210;48.708;9.030;2023-08-30T15:05:56;18.60;1.00
6355;DHT22;3210;48.708;9.030;2023-08-30T15:08:24;18.80;1.00
6355;DHT22;3210;48.708;9.030;2023-08-30T15:10:52;19.00;1.00
6355;DHT22;3210;48.708;9.030;2023-08-30T15:13:19;18.90;1.00
6355;DHT22;3210;48.708;9.030;2023-08-30T15:15:46;19.00;1.00
6355;DHT22;3210;48.708;9.030;2023-08-30T15:18:13;19.00;1.00
6355;DHT22;3210;48.708;9.030;2023-08-30T15:20:40;18.90;1.00
6355;DHT22;3210;48.708;9.030;2023-08-30T15:23:07;18.90;1.00
6355;DHT22;3210;48.708;9.030;2023-08-30T15:25:38;19.00;1.00
6355;DHT22;3210;48.708;9.030;2023-08-30T15:28:07;18.90;1.00
6355;DHT22;3210;48.708;9.030;2023-08-30T15:30:33;18.70;1.00
6355;DHT22;3210;48.708;9.030;2023-08-30T15:33:00;18.70;1.00
6355;DHT22;3210;48.708;9.030;2023-08-30T15:35:27;18.80;1.00
6355;DHT22;3210;48.708;9.030;2023-08-30T15:37:54;18.90;1.00
6355;DHT22;3210;48.708;9.030;2023-08-30T15:40:21;19.10;1.00
6355;DHT22;3210;48.708;9.030;2023-08-30T15:42:48;19.20;1.00
6355;DHT22;3210;48.708;9.030;2023-08-30T15:45:16;19.40;1.00
6355;DHT22;3210;48.708;9.030;2023-08-30T15:47:43;19.50;1.00
6355;DHT22;3210;48.708;9.030;2023-08-30T15:50:10;19.60;1.00
6355;DHT22;3210;48.708;9.030;2023-08-30T15:52:40;19.50;1.00
6355;DHT22;3210;48.708;9.030;2023-08-30T15:55:07;19.40;1.00
6355;DHT22;3210;48.708;9.030;2023-08-30T15:57:34;19.30;1.00
6355;DHT22;3210;48.708;9.030;2023-08-30T16:00:01;19.10;1.00
6355;DHT22;3210;48.708;9.030;2023-08-30T16:02:33;18.90;1.00
6355;DHT22;3210;48.708;9.030;2023-08-30T16:05:00;18.90;1.00
6355;DHT22;3210;48.708;9.030;2023-08-30T16:07:27;18.80;1.00
6355;DHT22;3210;48.708;9.030;2023-08-30T16:09:54;18.80;1.00
6355;DHT22;3210;48.708;9.030;2023-08-30T16:12:21;18.80;1.00